Time;durP1;ratioP1;P1;durP2;ratioP2;P2;SDS_P1;SDS_P2;PMS_P1;PMS_P2;Temp;Humidity;BMP_temperature;BMP_pressure;BME280_temperature;BME280_humidity;BME280_pressure;Samples;Min_cycle;Max_cycle;Signal;HPM_P1;HPM_P2
2023/02/28 00:00:10;;;;;;;;;;;4.50;99.90;;;;;;5011545;28;19924;-65
2023/02/28 00:02:36;;;;;;;;;;;4.50;99.90;;;;;;5012630;28;19967;-63
2023/02/28 00:05:02;;;;;;;;;;;4.50;99.90;;;;;;5012474;28;19909;-66
2023/02/28 00:07:29;;;;;;;;;;;4.50;99.90;;;;;;5004574;28;20275;-65
2023/02/28 00:09:55;;;;;;;;;;;4.40;99.90;;;;;;5008417;28;19981;-62
2023/02/28 00:12:20;;;;;;;;;;;4.40;99.90;;;;;;5010737;28;19913;-65
2023/02/28 00:14:46;;;;;;;;;;;4.40;99.90;;;;;;5008418;28;19965;-66
2023/02/28 00:17:12;;;;;;;;;;;4.40;99.90;;;;;;5008923;28;19996;-66
2023/02/28 00:19:37;;;;;;;;;;;4.40;99.90;;;;;;5012391;28;19909;-65
2023/02/28 00:22:03;;;;;;;;;;;4.40;99.90;;;;;;5007775;28;19914;-65
2023/02/28 00:24:29;;;;;;;;;;;4.40;99.90;;;;;;5009577;28;20368;-63
2023/02/28 00:26:54;;;;;;;;;;;4.40;99.90;;;;;;5006652;28;19913;-64
2023/02/28 00:29:20;;;;;;;;;;;4.40;99.90;;;;;;5000661;28;19979;-65
2023/02/28 00:31:45;;;;;;;;;;;4.40;99.90;;;;;;5008906;28;19910;-66
2023/02/28 00:34:11;;;;;;;;;;;4.40;99.90;;;;;;5008866;28;20371;-65
2023/02/28 00:36:37;;;;;;;;;;;4.40;99.90;;;;;;5009920;28;19909;-63
2023/02/28 00:39:03;;;;;;;;;;;4.40;99.90;;;;;;5011478;28;19919;-66
2023/02/28 00:41:29;;;;;;;;;;;4.40;99.90;;;;;;5010241;28;19921;-66
2023/02/28 00:43:57;;;;;;;;;;;4.40;99.90;;;;;;5011754;28;20427;-66
2023/02/28 00:46:23;;;;;;;;;;;4.40;99.90;;;;;;5010614;28;19914;-66
2023/02/28 00:48:49;;;;;;;;;;;4.40;99.90;;;;;;5012684;28;19913;-65
2023/02/28 00:51:15;;;;;;;;;;;4.40;99.90;;;;;;5012158;28;20421;-65
2023/02/28 00:53:40;;;;;;;;;;;4.40;99.90;;;;;;5012354;28;19913;-65
2023/02/28 00:56:06;;;;;;;;;;;4.30;99.90;;;;;;5009721;28;20257;-64
2023/02/28 00:58:32;;;;;;;;;;;4.30;99.90;;;;;;5010536;28;19921;-66
2023/02/28 01:00:58;;;;;;;;;;;4.40;99.90;;;;;;5012138;28;19914;-66
2023/02/28 01:03:23;;;;;;;;;;;4.40;99.90;;;;;;5012230;28;19910;-63
2023/02/28 01:05:49;;;;;;;;;;;4.40;99.90;;;;;;5013975;28;19914;-66
2023/02/28 01:08:15;;;;;;;;;;;4.40;99.90;;;;;;5015724;28;19910;-65
2023/02/28 01:10:41;;;;;;;;;;;4.40;99.90;;;;;;5015770;28;19917;-65
2023/02/28 01:13:06;;;;;;;;;;;4.50;99.90;;;;;;5015667;28;20000;-67
2023/02/28 01:15:32;;;;;;;;;;;4.50;99.90;;;;;;5008074;28;19948;-67
2023/02/28 01:17:58;;;;;;;;;;;4.50;99.90;;;;;;5015168;28;19932;-64
2023/02/28 01:20:24;;;;;;;;;;;4.50;99.90;;;;;;5014012;28;19924;-65
2023/02/28 01:22:50;;;;;;;;;;;4.40;99.90;;;;;;5012799;28;19918;-66
2023/02/28 01:25:15;;;;;;;;;;;4.40;99.90;;;;;;5007736;28;19928;-65
2023/02/28 01:27:41;;;;;;;;;;;4.40;99.90;;;;;;5014815;28;19914;-65
2023/02/28 01:30:08;;;;;;;;;;;4.40;99.90;;;;;;5012609;28;19913;-66
2023/02/28 01:32:33;;;;;;;;;;;4.50;99.90;;;;;;5013867;28;19956;-68
2023/02/28 01:34:59;;;;;;;;;;;4.40;99.90;;;;;;4998549;28;20361;-64
2023/02/28 01:37:24;;;;;;;;;;;4.50;99.90;;;;;;5013249;28;20316;-64
2023/02/28 01:39:50;;;;;;;;;;;4.40;99.90;;;;;;5015361;28;19917;-69
2023/02/28 01:42:16;;;;;;;;;;;4.40;99.90;;;;;;5013389;28;19914;-70
2023/02/28 01:45:03;;;;;;;;;;;4.40;99.90;;;;;;5014775;28;19919;-67
2023/02/28 01:47:31;;;;;;;;;;;4.50;99.90;;;;;;5010317;28;20379;-65
2023/02/28 01:49:57;;;;;;;;;;;4.50;99.90;;;;;;5008598;28;20405;-65
2023/02/28 01:52:24;;;;;;;;;;;4.50;99.90;;;;;;5014651;28;20347;-65
2023/02/28 01:54:55;;;;;;;;;;;4.50;99.90;;;;;;5015399;28;20473;-64
2023/02/28 01:57:27;;;;;;;;;;;4.50;99.90;;;;;;5011900;28;19917;-66
2023/02/28 02:00:04;;;;;;;;;;;4.50;99.90;;;;;;5009128;28;19921;-65
2023/02/28 02:02:30;;;;;;;;;;;4.50;99.90;;;;;;5014402;28;19963;-66
2023/02/28 02:05:05;;;;;;;;;;;4.50;99.90;;;;;;5015386;28;19986;-65
2023/02/28 02:07:38;;;;;;;;;;;4.40;99.90;;;;;;5007872;28;19913;-65
2023/02/28 02:10:10;;;;;;;;;;;4.60;99.90;;;;;;5014659;28;19909;-64
2023/02/28 02:12:38;;;;;;;;;;;4.50;99.90;;;;;;5014834;28;19910;-64
2023/02/28 02:15:08;;;;;;;;;;;4.60;99.90;;;;;;5014508;28;19917;-64
2023/02/28 02:17:39;;;;;;;;;;;4.60;99.90;;;;;;5012829;28;19935;-65
2023/02/28 02:20:23;;;;;;;;;;;4.60;99.90;;;;;;5007177;28;20659;-66
2023/02/28 02:23:01;;;;;;;;;;;4.70;99.90;;;;;;5007363;28;19913;-67
2023/02/28 02:25:46;;;;;;;;;;;4.70;99.90;;;;;;5009013;28;20056;-66
2023/02/28 02:28:26;;;;;;;;;;;4.60;99.90;;;;;;5013552;28;20511;-66
2023/02/28 02:31:14;;;;;;;;;;;4.60;99.90;;;;;;5012266;28;19960;-66
2023/02/28 02:33:48;;;;;;;;;;;4.70;99.90;;;;;;5007826;28;19959;-65
2023/02/28 02:36:20;;;;;;;;;;;4.60;99.90;;;;;;5004541;28;19976;-66
2023/02/28 02:38:46;;;;;;;;;;;4.70;99.90;;;;;;5014151;28;19916;-68
2023/02/28 02:41:17;;;;;;;;;;;4.70;99.90;;;;;;5013545;28;19917;-66
2023/02/28 02:43:56;;;;;;;;;;;4.70;99.90;;;;;;5014755;28;19980;-66
2023/02/28 02:46:26;;;;;;;;;;;4.60;99.90;;;;;;5012809;28;19918;-66
2023/02/28 02:48:52;;;;;;;;;;;4.70;99.90;;;;;;5012173;28;19921;-65
2023/02/28 02:51:21;;;;;;;;;;;4.70;99.90;;;;;;5013964;28;19955;-68
2023/02/28 02:53:49;;;;;;;;;;;4.70;99.90;;;;;;5013622;28;19910;-66
2023/02/28 02:56:17;;;;;;;;;;;4.70;99.90;;;;;;5012771;28;20047;-65
2023/02/28 02:58:43;;;;;;;;;;;4.70;99.90;;;;;;5012487;28;19992;-65
2023/02/28 03:01:14;;;;;;;;;;;4.60;99.90;;;;;;5013693;28;19917;-64
2023/02/28 03:03:40;;;;;;;;;;;4.60;99.90;;;;;;5013764;28;20052;-63
2023/02/28 03:06:05;;;;;;;;;;;4.60;99.90;;;;;;5013755;28;19973;-65
2023/02/28 03:08:35;;;;;;;;;;;4.70;99.90;;;;;;5013374;28;19917;-64
2023/02/28 03:11:03;;;;;;;;;;;4.70;99.90;;;;;;5013696;28;19921;-65
2023/02/28 03:13:48;;;;;;;;;;;4.70;99.90;;;;;;5012056;28;19913;-67
2023/02/28 03:16:32;;;;;;;;;;;4.70;99.90;;;;;;5010219;28;20005;-65
2023/02/28 03:19:14;;;;;;;;;;;4.60;99.90;;;;;;5012356;28;19957;-67
2023/02/28 03:21:56;;;;;;;;;;;4.60;99.90;;;;;;5013752;28;19914;-65
2023/02/28 03:24:30;;;;;;;;;;;4.50;99.90;;;;;;5012240;28;19987;-67
2023/02/28 03:27:01;;;;;;;;;;;4.60;99.90;;;;;;5007189;28;19914;-62
2023/02/28 03:29:47;;;;;;;;;;;4.70;99.90;;;;;;5010356;28;19913;-66
2023/02/28 03:32:33;;;;;;;;;;;4.70;99.90;;;;;;5012486;28;20004;-65
2023/02/28 03:34:59;;;;;;;;;;;4.70;99.90;;;;;;5013795;28;20000;-65
2023/02/28 03:37:25;;;;;;;;;;;4.70;99.90;;;;;;5005373;28;19984;-64
2023/02/28 03:39:56;;;;;;;;;;;4.70;99.90;;;;;;5010525;28;19960;-71
2023/02/28 03:42:24;;;;;;;;;;;4.60;99.90;;;;;;5006151;28;19920;-67
2023/02/28 03:44:58;;;;;;;;;;;4.50;99.90;;;;;;5013318;28;20486;-64
2023/02/28 03:47:32;;;;;;;;;;;4.40;99.90;;;;;;5007112;28;19913;-65
2023/02/28 03:50:05;;;;;;;;;;;4.40;99.90;;;;;;5013295;28;19909;-66
2023/02/28 03:52:35;;;;;;;;;;;4.40;99.90;;;;;;5011086;28;19975;-64
2023/02/28 03:55:07;;;;;;;;;;;4.50;99.90;;;;;;5007661;28;19918;-66
2023/02/28 03:57:37;;;;;;;;;;;4.50;99.90;;;;;;5004784;28;20303;-69
2023/02/28 04:00:08;;;;;;;;;;;4.50;99.90;;;;;;5008398;28;19925;-66
2023/02/28 04:02:34;;;;;;;;;;;4.50;99.90;;;;;;5005846;28;19914;-65
2023/02/28 04:05:00;;;;;;;;;;;4.50;99.90;;;;;;5012527;28;20394;-67
2023/02/28 04:07:29;;;;;;;;;;;4.50;99.90;;;;;;5004097;28;19940;-63
2023/02/28 04:09:54;;;;;;;;;;;4.50;99.90;;;;;;5011767;28;20423;-65
2023/02/28 04:12:22;;;;;;;;;;;4.50;99.90;;;;;;5009864;28;20004;-64
2023/02/28 04:14:48;;;;;;;;;;;4.50;99.90;;;;;;5007238;28;19920;-63
2023/02/28 04:17:14;;;;;;;;;;;4.50;99.90;;;;;;5011122;28;19914;-66
2023/02/28 04:19:40;;;;;;;;;;;4.60;99.90;;;;;;5012955;28;19914;-63
2023/02/28 04:22:05;;;;;;;;;;;4.50;99.90;;;;;;5004383;28;20009;-66
2023/02/28 04:24:31;;;;;;;;;;;4.50;99.90;;;;;;5021465;28;19941;-68
2023/02/28 04:26:57;;;;;;;;;;;4.50;99.90;;;;;;5010385;28;20000;-66
2023/02/28 04:29:24;;;;;;;;;;;4.50;99.90;;;;;;5009140;28;19913;-66
2023/02/28 04:31:57;;;;;;;;;;;4.50;99.90;;;;;;5020606;28;20046;-63
2023/02/28 04:34:23;;;;;;;;;;;4.50;99.90;;;;;;5012937;28;19940;-66
2023/02/28 04:36:53;;;;;;;;;;;4.50;99.90;;;;;;5004411;28;19917;-66
2023/02/28 04:39:19;;;;;;;;;;;4.60;99.90;;;;;;5025268;28;19997;-66
2023/02/28 04:41:45;;;;;;;;;;;4.50;99.90;;;;;;5010137;28;20338;-66
2023/02/28 04:44:11;;;;;;;;;;;4.50;99.90;;;;;;5012416;28;19953;-67
2023/02/28 04:46:36;;;;;;;;;;;4.60;99.90;;;;;;5014812;28;19985;-67
2023/02/28 04:49:02;;;;;;;;;;;4.60;99.90;;;;;;5016627;28;19910;-65
2023/02/28 04:51:28;;;;;;;;;;;4.60;99.90;;;;;;5012332;28;19921;-64
2023/02/28 04:53:53;;;;;;;;;;;4.60;99.90;;;;;;5016230;28;19916;-66
2023/02/28 04:56:19;;;;;;;;;;;4.60;99.90;;;;;;5010354;28;19914;-66
2023/02/28 04:58:45;;;;;;;;;;;4.60;99.90;;;;;;5015998;28;19909;-65
2023/02/28 05:01:18;;;;;;;;;;;4.60;99.90;;;;;;5015994;28;19925;-68
2023/02/28 05:03:44;;;;;;;;;;;4.60;99.90;;;;;;5015934;28;20043;-66
2023/02/28 05:06:10;;;;;;;;;;;4.50;99.90;;;;;;5014351;28;19941;-67
2023/02/28 05:08:36;;;;;;;;;;;4.50;99.90;;;;;;5015856;28;19918;-66
2023/02/28 05:11:02;;;;;;;;;;;4.50;99.90;;;;;;5016229;28;19914;-66
2023/02/28 05:13:28;;;;;;;;;;;4.50;99.90;;;;;;5007337;28;19914;-63
2023/02/28 05:15:53;;;;;;;;;;;4.50;99.90;;;;;;5015283;28;19909;-68
2023/02/28 05:18:19;;;;;;;;;;;4.50;99.90;;;;;;5015533;28;20364;-67
2023/02/28 05:20:45;;;;;;;;;;;4.50;99.90;;;;;;5014933;28;20330;-66
2023/02/28 05:23:14;;;;;;;;;;;4.50;99.90;;;;;;5014945;28;19935;-66
2023/02/28 05:25:40;;;;;;;;;;;4.60;99.90;;;;;;5013074;28;19920;-65
2023/02/28 05:28:06;;;;;;;;;;;4.50;99.90;;;;;;5014072;28;19913;-67
2023/02/28 05:30:32;;;;;;;;;;;4.50;99.90;;;;;;5014310;28;20271;-67
2023/02/28 05:32:58;;;;;;;;;;;4.40;99.90;;;;;;5007607;28;19914;-65
2023/02/28 05:35:24;;;;;;;;;;;4.40;99.90;;;;;;5006915;28;20375;-67
2023/02/28 05:37:49;;;;;;;;;;;4.40;99.90;;;;;;5022546;28;19917;-67
2023/02/28 05:40:15;;;;;;;;;;;4.40;99.90;;;;;;5015092;28;19940;-66
2023/02/28 05:42:41;;;;;;;;;;;4.40;99.90;;;;;;5015417;28;20580;-66
2023/02/28 05:45:08;;;;;;;;;;;4.50;99.90;;;;;;5015961;28;19910;-67
2023/02/28 05:47:33;;;;;;;;;;;4.50;99.90;;;;;;5007528;28;19914;-66
2023/02/28 05:50:00;;;;;;;;;;;4.50;99.90;;;;;;5013484;28;20391;-67
2023/02/28 05:52:25;;;;;;;;;;;4.50;99.90;;;;;;5012310;28;19921;-66
2023/02/28 05:54:51;;;;;;;;;;;4.60;99.90;;;;;;5015718;28;20102;-66
2023/02/28 05:57:17;;;;;;;;;;;4.60;99.90;;;;;;5011617;28;19913;-67
2023/02/28 05:59:42;;;;;;;;;;;4.60;99.90;;;;;;5014448;28;19925;-65
2023/02/28 06:02:16;;;;;;;;;;;4.50;99.90;;;;;;5011472;28;19940;-67
2023/02/28 06:04:42;;;;;;;;;;;4.50;99.90;;;;;;5004698;28;19914;-66
2023/02/28 06:07:08;;;;;;;;;;;4.60;99.90;;;;;;5004978;28;20395;-66
2023/02/28 06:09:34;;;;;;;;;;;4.60;99.90;;;;;;5014675;28;19956;-67
2023/02/28 06:12:03;;;;;;;;;;;4.60;99.90;;;;;;5014255;28;19921;-65
2023/02/28 06:14:30;;;;;;;;;;;4.70;99.90;;;;;;5013277;28;19913;-66
2023/02/28 06:16:56;;;;;;;;;;;4.70;99.90;;;;;;5006482;28;19913;-66
2023/02/28 06:19:23;;;;;;;;;;;4.70;99.90;;;;;;5014892;28;19909;-66
2023/02/28 06:21:50;;;;;;;;;;;4.70;99.90;;;;;;5019686;28;19921;-66
2023/02/28 06:24:16;;;;;;;;;;;4.70;99.90;;;;;;5012979;28;20287;-67
2023/02/28 06:26:41;;;;;;;;;;;4.70;99.90;;;;;;5012918;28;19913;-67
2023/02/28 06:29:07;;;;;;;;;;;4.70;99.90;;;;;;5013248;28;19920;-71
2023/02/28 06:31:33;;;;;;;;;;;4.70;99.90;;;;;;5012062;28;19920;-65
2023/02/28 06:33:58;;;;;;;;;;;4.70;99.90;;;;;;5011282;28;20008;-67
2023/02/28 06:36:24;;;;;;;;;;;4.70;99.90;;;;;;5011252;28;19917;-67
2023/02/28 06:38:54;;;;;;;;;;;4.80;99.90;;;;;;5015264;28;20499;-66
2023/02/28 06:41:21;;;;;;;;;;;4.80;99.90;;;;;;5012310;28;19918;-66
2023/02/28 06:43:46;;;;;;;;;;;4.80;99.90;;;;;;5013950;28;20446;-67
2023/02/28 06:46:13;;;;;;;;;;;4.90;99.90;;;;;;5011898;28;19917;-66
2023/02/28 06:48:39;;;;;;;;;;;4.80;99.90;;;;;;5009366;28;19920;-67
2023/02/28 06:51:06;;;;;;;;;;;4.80;99.90;;;;;;5010836;28;19914;-66
2023/02/28 06:53:32;;;;;;;;;;;4.80;99.90;;;;;;5014058;28;19968;-67
2023/02/28 06:55:58;;;;;;;;;;;4.90;99.90;;;;;;5013360;28;19913;-66
2023/02/28 06:58:23;;;;;;;;;;;4.90;99.90;;;;;;5006974;28;20386;-64
2023/02/28 07:00:52;;;;;;;;;;;4.90;99.90;;;;;;5012097;28;20521;-66
2023/02/28 07:03:18;;;;;;;;;;;5.00;99.90;;;;;;5013878;28;19992;-67
2023/02/28 07:05:44;;;;;;;;;;;5.00;99.90;;;;;;5010160;28;19963;-67
2023/02/28 07:08:10;;;;;;;;;;;4.90;99.90;;;;;;5003084;28;19949;-64
2023/02/28 07:10:39;;;;;;;;;;;4.90;99.90;;;;;;5003468;28;20554;-64
2023/02/28 07:13:05;;;;;;;;;;;5.00;99.90;;;;;;5010208;28;19932;-66
2023/02/28 07:15:31;;;;;;;;;;;5.00;99.90;;;;;;5012370;28;19982;-66
2023/02/28 07:17:57;;;;;;;;;;;5.00;99.90;;;;;;5013881;28;20438;-67
2023/02/28 07:20:23;;;;;;;;;;;5.00;99.90;;;;;;5013080;28;19919;-65
2023/02/28 07:22:55;;;;;;;;;;;5.00;99.90;;;;;;5011677;28;19913;-65
2023/02/28 07:25:21;;;;;;;;;;;5.10;99.90;;;;;;5010813;28;19921;-66
2023/02/28 07:27:49;;;;;;;;;;;5.10;99.90;;;;;;5004574;28;20030;-66
2023/02/28 07:30:15;;;;;;;;;;;5.20;99.90;;;;;;5010067;28;19913;-67
2023/02/28 07:32:41;;;;;;;;;;;5.20;99.90;;;;;;5003514;28;19945;-66
2023/02/28 07:35:07;;;;;;;;;;;5.20;99.90;;;;;;5005847;28;20411;-67
2023/02/28 07:37:36;;;;;;;;;;;5.20;99.90;;;;;;5005025;28;20019;-67
2023/02/28 07:40:08;;;;;;;;;;;5.20;99.90;;;;;;5011220;28;19956;-66
2023/02/28 07:42:34;;;;;;;;;;;5.20;99.90;;;;;;5006780;28;19937;-67
2023/02/28 07:44:59;;;;;;;;;;;5.20;99.90;;;;;;5013587;28;19941;-67
2023/02/28 07:47:25;;;;;;;;;;;5.30;99.90;;;;;;5002720;28;19921;-67
2023/02/28 07:49:51;;;;;;;;;;;5.20;99.90;;;;;;5006327;28;19924;-67
2023/02/28 07:52:17;;;;;;;;;;;5.30;99.90;;;;;;5012201;28;19913;-66
2023/02/28 07:54:42;;;;;;;;;;;5.40;99.90;;;;;;5009888;28;19941;-66
2023/02/28 07:57:08;;;;;;;;;;;5.30;99.90;;;;;;5011709;28;20016;-67
2023/02/28 07:59:34;;;;;;;;;;;5.40;99.90;;;;;;5012369;28;20380;-70
2023/02/28 08:01:59;;;;;;;;;;;5.30;99.90;;;;;;5009321;28;20324;-66
2023/02/28 08:04:25;;;;;;;;;;;5.40;99.90;;;;;;5009404;28;19920;-68
2023/02/28 08:06:53;;;;;;;;;;;5.50;99.90;;;;;;5006036;28;19924;-66
2023/02/28 08:09:19;;;;;;;;;;;5.40;99.90;;;;;;5013245;28;19917;-67
2023/02/28 08:11:45;;;;;;;;;;;5.40;99.90;;;;;;5006800;28;19921;-67
2023/02/28 08:14:10;;;;;;;;;;;5.30;99.90;;;;;;5006986;28;19940;-67
2023/02/28 08:16:36;;;;;;;;;;;5.40;99.90;;;;;;5015663;28;19918;-66
2023/02/28 08:19:02;;;;;;;;;;;5.40;99.90;;;;;;5017572;28;19910;-67
2023/02/28 08:21:28;;;;;;;;;;;5.50;99.90;;;;;;5012680;28;19917;-65
2023/02/28 08:23:54;;;;;;;;;;;5.50;99.90;;;;;;5017093;28;19913;-65
2023/02/28 08:26:20;;;;;;;;;;;5.50;99.90;;;;;;5010693;28;20394;-66
2023/02/28 08:28:45;;;;;;;;;;;5.50;99.90;;;;;;5009096;28;19928;-67
2023/02/28 08:31:13;;;;;;;;;;;5.50;99.90;;;;;;5016363;28;19917;-67
2023/02/28 08:33:39;;;;;;;;;;;5.50;99.90;;;;;;5009919;28;19913;-67
2023/02/28 08:36:05;;;;;;;;;;;5.70;99.90;;;;;;5014614;28;19918;-67
2023/02/28 08:38:34;;;;;;;;;;;5.80;99.90;;;;;;5009929;28;19936;-65
2023/02/28 08:41:01;;;;;;;;;;;5.80;99.90;;;;;;5015882;28;19917;-67
2023/02/28 08:43:26;;;;;;;;;;;5.80;99.90;;;;;;5010110;28;19914;-67
2023/02/28 08:45:52;;;;;;;;;;;5.80;99.90;;;;;;5014302;28;19913;-67
2023/02/28 08:48:18;;;;;;;;;;;5.80;99.90;;;;;;5016738;28;19917;-66
2023/02/28 08:50:44;;;;;;;;;;;5.80;99.90;;;;;;5015319;28;19937;-67
2023/02/28 08:53:09;;;;;;;;;;;5.90;99.90;;;;;;5016358;28;20272;-67
2023/02/28 08:55:35;;;;;;;;;;;5.90;99.90;;;;;;5015335;28;19916;-67
2023/02/28 08:58:01;;;;;;;;;;;5.90;99.90;;;;;;5014394;28;20358;-67
2023/02/28 09:00:26;;;;;;;;;;;5.90;99.90;;;;;;5015729;28;20509;-67
2023/02/28 09:02:52;;;;;;;;;;;6.00;99.90;;;;;;5017059;28;20016;-65
2023/02/28 09:05:18;;;;;;;;;;;6.00;99.90;;;;;;5013947;28;19967;-66
2023/02/28 09:07:44;;;;;;;;;;;6.00;99.90;;;;;;5015463;28;19913;-66
2023/02/28 09:10:09;;;;;;;;;;;5.90;99.90;;;;;;5016532;28;19909;-67
2023/02/28 09:12:35;;;;;;;;;;;5.90;99.90;;;;;;5014327;28;19913;-66
2023/02/28 09:15:02;;;;;;;;;;;6.00;99.90;;;;;;5006490;28;19925;-65
2023/02/28 09:17:27;;;;;;;;;;;6.10;99.90;;;;;;5009218;28;19960;-67
2023/02/28 09:19:53;;;;;;;;;;;6.10;99.90;;;;;;5016270;28;19909;-67
2023/02/28 09:22:19;;;;;;;;;;;6.10;99.90;;;;;;5012755;28;19964;-67
2023/02/28 09:24:44;;;;;;;;;;;6.10;99.90;;;;;;5013365;28;19913;-67
2023/02/28 09:27:10;;;;;;;;;;;6.20;99.90;;;;;;5012332;28;19913;-67
2023/02/28 09:29:37;;;;;;;;;;;6.20;99.90;;;;;;5010046;28;19922;-67
2023/02/28 09:32:05;;;;;;;;;;;6.20;99.90;;;;;;5011256;28;19913;-66
2023/02/28 09:34:31;;;;;;;;;;;6.30;99.90;;;;;;5006424;28;19917;-67
2023/02/28 09:36:56;;;;;;;;;;;6.30;99.90;;;;;;5002508;28;19920;-67
2023/02/28 09:39:22;;;;;;;;;;;6.30;99.90;;;;;;5004610;28;19921;-67
2023/02/28 09:41:51;;;;;;;;;;;6.40;99.90;;;;;;5008658;28;19924;-66
2023/02/28 09:44:20;;;;;;;;;;;6.50;99.90;;;;;;5006151;28;19913;-63
2023/02/28 09:46:48;;;;;;;;;;;6.70;99.90;;;;;;5006077;28;19921;-65
2023/02/28 09:49:16;;;;;;;;;;;7.00;99.90;;;;;;5012894;28;19967;-60
2023/02/28 09:51:42;;;;;;;;;;;7.20;99.90;;;;;;5013302;28;20593;-59
2023/02/28 09:54:12;;;;;;;;;;;7.40;99.90;;;;;;5008315;28;19914;-61
2023/02/28 09:56:41;;;;;;;;;;;7.50;99.90;;;;;;5013568;28;19913;-60
2023/02/28 09:59:10;;;;;;;;;;;7.60;99.90;;;;;;5011710;28;19913;-62
2023/02/28 10:01:48;;;;;;;;;;;7.70;99.90;;;;;;5003484;28;19917;-57
2023/02/28 10:04:26;;;;;;;;;;;7.80;99.90;;;;;;5004896;28;19967;-60
2023/02/28 10:06:52;;;;;;;;;;;7.80;99.90;;;;;;5011452;28;19968;-57
2023/02/28 10:09:27;;;;;;;;;;;7.90;99.90;;;;;;5013220;28;19917;-60
2023/02/28 10:11:54;;;;;;;;;;;8.00;99.90;;;;;;5015159;28;20097;-61
2023/02/28 10:14:21;;;;;;;;;;;8.10;99.90;;;;;;5009881;28;19956;-58
2023/02/28 10:16:55;;;;;;;;;;;8.00;99.90;;;;;;5010616;28;19914;-60
2023/02/28 10:19:32;;;;;;;;;;;7.90;99.90;;;;;;5011422;28;20185;-61
2023/02/28 10:22:17;;;;;;;;;;;7.80;99.90;;;;;;5005967;28;20001;-60
2023/02/28 10:24:45;;;;;;;;;;;7.80;99.90;;;;;;5020599;28;20359;-59
2023/02/28 10:27:11;;;;;;;;;;;7.80;99.90;;;;;;5011825;28;20449;-59
2023/02/28 10:29:40;;;;;;;;;;;7.80;99.90;;;;;;5009730;28;19913;-62
2023/02/28 10:32:05;;;;;;;;;;;7.90;99.90;;;;;;5010708;28;20019;-64
2023/02/28 10:34:31;;;;;;;;;;;7.90;99.90;;;;;;5011579;28;20535;-67
2023/02/28 10:37:07;;;;;;;;;;;7.80;99.90;;;;;;5006368;28;19909;-67
2023/02/28 10:39:38;;;;;;;;;;;7.70;99.90;;;;;;5012924;28;19992;-68
2023/02/28 10:42:04;;;;;;;;;;;7.60;99.90;;;;;;5014006;28;19917;-69
2023/02/28 10:44:30;;;;;;;;;;;7.50;99.90;;;;;;5013894;28;19917;-68
2023/02/28 10:46:56;;;;;;;;;;;7.40;99.90;;;;;;5013457;28;20284;-68
2023/02/28 10:49:23;;;;;;;;;;;7.40;99.90;;;;;;5013211;28;20347;-67
2023/02/28 10:51:51;;;;;;;;;;;7.30;99.90;;;;;;5007722;28;19913;-68
2023/02/28 10:54:27;;;;;;;;;;;7.30;99.90;;;;;;5002009;28;19917;-67
2023/02/28 10:57:11;;;;;;;;;;;7.30;99.90;;;;;;5011711;28;19953;-68
2023/02/28 10:59:37;;;;;;;;;;;7.30;99.90;;;;;;5003698;28;19921;-68
2023/02/28 11:02:22;;;;;;;;;;;7.30;99.90;;;;;;5001335;28;19925;-68
2023/02/28 11:04:48;;;;;;;;;;;7.20;99.90;;;;;;5012544;28;20326;-68
2023/02/28 11:07:18;;;;;;;;;;;7.20;99.90;;;;;;5004008;28;19918;-68
2023/02/28 11:09:49;;;;;;;;;;;7.20;99.90;;;;;;5013282;28;19936;-68
2023/02/28 11:12:21;;;;;;;;;;;7.20;99.90;;;;;;5011153;28;20036;-68
2023/02/28 11:14:48;;;;;;;;;;;7.20;99.90;;;;;;5003184;28;19956;-68
2023/02/28 11:17:21;;;;;;;;;;;7.20;99.90;;;;;;5003719;28;19925;-67
2023/02/28 11:19:49;;;;;;;;;;;7.30;99.90;;;;;;5012296;28;19989;-67
2023/02/28 11:22:20;;;;;;;;;;;7.30;99.90;;;;;;5017711;28;19964;-68
2023/02/28 11:24:48;;;;;;;;;;;7.30;99.90;;;;;;5006299;28;20296;-68
2023/02/28 11:27:29;;;;;;;;;;;7.20;99.90;;;;;;5008274;28;19932;-68
2023/02/28 11:29:55;;;;;;;;;;;7.20;99.90;;;;;;5006666;28;19914;-68
2023/02/28 11:32:21;;;;;;;;;;;7.10;99.90;;;;;;5008958;28;20460;-68
2023/02/28 11:35:01;;;;;;;;;;;7.10;99.90;;;;;;5010038;28;20004;-68
2023/02/28 11:37:28;;;;;;;;;;;7.20;99.90;;;;;;5003316;28;19914;-68
2023/02/28 11:39:53;;;;;;;;;;;7.30;99.90;;;;;;5003119;28;19913;-68
2023/02/28 11:42:39;;;;;;;;;;;7.30;99.90;;;;;;5007361;28;20016;-67
2023/02/28 11:45:23;;;;;;;;;;;7.20;99.90;;;;;;5005040;28;19913;-68
2023/02/28 11:47:54;;;;;;;;;;;7.30;99.90;;;;;;5001885;28;19918;-69
2023/02/28 11:50:39;;;;;;;;;;;7.30;99.90;;;;;;5004387;28;19923;-67
2023/02/28 11:53:22;;;;;;;;;;;7.30;99.90;;;;;;4999693;28;19914;-68
2023/02/28 11:56:01;;;;;;;;;;;7.20;99.90;;;;;;5005663;28;19963;-67
2023/02/28 11:58:48;;;;;;;;;;;7.30;99.90;;;;;;5006085;28;19924;-66
2023/02/28 12:01:20;;;;;;;;;;;7.30;99.90;;;;;;5014753;28;19925;-67
2023/02/28 12:04:04;;;;;;;;;;;7.30;99.90;;;;;;5018471;28;20012;-67
2023/02/28 12:06:38;;;;;;;;;;;7.30;99.90;;;;;;5004711;28;20533;-67
2023/02/28 12:09:12;;;;;;;;;;;7.40;99.90;;;;;;5012067;28;19916;-67
2023/02/28 12:11:38;;;;;;;;;;;7.40;99.90;;;;;;5006662;28;20037;-68
2023/02/28 12:14:13;;;;;;;;;;;7.40;99.90;;;;;;5003565;28;19968;-67
2023/02/28 12:16:57;;;;;;;;;;;7.50;99.90;;;;;;5011045;28;19913;-67
2023/02/28 12:19:27;;;;;;;;;;;7.50;99.90;;;;;;5011706;28;19921;-67
2023/02/28 12:22:05;;;;;;;;;;;7.50;99.90;;;;;;5007111;28;19964;-67
2023/02/28 12:24:47;;;;;;;;;;;7.50;99.90;;;;;;5000851;28;19991;-68
2023/02/28 12:27:15;;;;;;;;;;;7.50;99.90;;;;;;5002572;28;19914;-67
2023/02/28 12:29:50;;;;;;;;;;;7.50;99.90;;;;;;5023483;28;20048;-68
2023/02/28 12:32:15;;;;;;;;;;;7.40;99.90;;;;;;5007700;28;19917;-67
2023/02/28 12:34:45;;;;;;;;;;;7.40;99.90;;;;;;5009341;28;19968;-67
2023/02/28 12:37:16;;;;;;;;;;;7.50;99.90;;;;;;5008304;28;20291;-68
2023/02/28 12:39:45;;;;;;;;;;;7.60;99.90;;;;;;5009816;28;20008;-68
2023/02/28 12:42:19;;;;;;;;;;;7.50;99.90;;;;;;5010287;28;19918;-68
2023/02/28 12:44:48;;;;;;;;;;;7.60;99.90;;;;;;5002786;28;20298;-67
2023/02/28 12:47:17;;;;;;;;;;;7.60;99.90;;;;;;5009557;28;19920;-68
2023/02/28 12:49:51;;;;;;;;;;;7.60;99.90;;;;;;5004454;28;19916;-68
2023/02/28 12:52:19;;;;;;;;;;;7.60;99.90;;;;;;5000996;28;19965;-66
2023/02/28 12:54:49;;;;;;;;;;;7.50;99.90;;;;;;5010320;28;19960;-68
2023/02/28 12:57:23;;;;;;;;;;;7.60;99.90;;;;;;5011015;28;19909;-67
2023/02/28 12:59:50;;;;;;;;;;;7.50;99.90;;;;;;5009214;28;19952;-67
2023/02/28 13:02:20;;;;;;;;;;;7.50;99.90;;;;;;5012344;28;19920;-67
2023/02/28 13:04:46;;;;;;;;;;;7.50;99.90;;;;;;5009497;28;20485;-67
2023/02/28 13:07:12;;;;;;;;;;;7.50;99.90;;;;;;5014341;28;20046;-68
2023/02/28 13:09:38;;;;;;;;;;;7.50;99.90;;;;;;5012627;28;20267;-68
2023/02/28 13:12:12;;;;;;;;;;;7.60;99.90;;;;;;5010661;28;19952;-68
2023/02/28 13:14:38;;;;;;;;;;;7.50;99.90;;;;;;5018880;28;19913;-68
2023/02/28 13:17:08;;;;;;;;;;;7.50;99.90;;;;;;5010471;28;19936;-68
2023/02/28 13:19:35;;;;;;;;;;;7.30;99.90;;;;;;5012570;28;19955;-68
2023/02/28 13:22:02;;;;;;;;;;;7.20;99.90;;;;;;5009873;28;19960;-68
2023/02/28 13:24:43;;;;;;;;;;;7.10;99.90;;;;;;5013673;28;19920;-67
2023/02/28 13:27:08;;;;;;;;;;;7.10;99.90;;;;;;5004992;28;20454;-68
2023/02/28 13:29:36;;;;;;;;;;;7.10;99.90;;;;;;5011743;28;20139;-68
2023/02/28 13:32:07;;;;;;;;;;;7.10;99.90;;;;;;5009045;28;20018;-68
2023/02/28 13:34:33;;;;;;;;;;;7.20;99.90;;;;;;5003053;28;20327;-69
2023/02/28 13:37:17;;;;;;;;;;;7.20;99.90;;;;;;5002278;28;19909;-68
2023/02/28 13:39:43;;;;;;;;;;;7.30;99.90;;;;;;5010424;28;19917;-69
2023/02/28 13:42:26;;;;;;;;;;;7.30;99.90;;;;;;5011761;28;19917;-69
2023/02/28 13:45:01;;;;;;;;;;;7.30;99.90;;;;;;5018339;28;19914;-69
2023/02/28 13:47:31;;;;;;;;;;;7.20;99.90;;;;;;5009754;28;19920;-69
2023/02/28 13:50:21;;;;;;;;;;;7.20;99.90;;;;;;5013125;28;19921;-69
2023/02/28 13:53:05;;;;;;;;;;;7.20;99.90;;;;;;5011649;28;20233;-69
2023/02/28 13:55:31;;;;;;;;;;;7.20;99.90;;;;;;5011804;28;19921;-66
2023/02/28 13:58:15;;;;;;;;;;;7.30;99.90;;;;;;5003337;28;19910;-67
2023/02/28 14:01:00;;;;;;;;;;;7.30;99.90;;;;;;5008476;28;19921;-70
2023/02/28 14:03:44;;;;;;;;;;;7.30;99.90;;;;;;5007758;28;19980;-70
2023/02/28 14:06:18;;;;;;;;;;;7.40;99.90;;;;;;5012623;28;19913;-68
2023/02/28 14:09:08;;;;;;;;;;;7.40;99.90;;;;;;5022297;28;19999;-71
2023/02/28 14:11:35;;;;;;;;;;;7.40;99.90;;;;;;5022919;28;20333;-69
2023/02/28 14:14:01;;;;;;;;;;;7.50;99.90;;;;;;5009553;28;19917;-68
2023/02/28 14:16:34;;;;;;;;;;;7.50;99.90;;;;;;5008782;28;20373;-68
2023/02/28 14:19:03;;;;;;;;;;;7.50;99.90;;;;;;5011868;28;19910;-69
2023/02/28 14:21:31;;;;;;;;;;;7.50;99.90;;;;;;5009242;28;19954;-70
2023/02/28 14:23:59;;;;;;;;;;;7.50;99.90;;;;;;5013425;28;20513;-67
2023/02/28 14:26:37;;;;;;;;;;;7.50;99.90;;;;;;5013347;28;19913;-69
2023/02/28 14:29:02;;;;;;;;;;;7.50;99.90;;;;;;5012556;28;19928;-66
2023/02/28 14:31:32;;;;;;;;;;;7.60;99.90;;;;;;5010557;28;19982;-70
2023/02/28 14:34:22;;;;;;;;;;;7.60;99.90;;;;;;5007961;28;19921;-67
2023/02/28 14:36:48;;;;;;;;;;;7.50;99.90;;;;;;5002555;28;20398;-68
2023/02/28 14:39:14;;;;;;;;;;;7.50;99.90;;;;;;5011502;28;19920;-67
2023/02/28 14:41:41;;;;;;;;;;;7.60;99.90;;;;;;5009420;28;20585;-67